sensor_id;sensor_type;location;lat;lon;timestamp;temperature;humidity
14000;DHT22;7075;53.574;10.054;2022-10-04T00:01:04;13.00;99.90
14000;DHT22;7075;53.574;10.054;2022-10-04T00:03:35;13.00;99.90
14000;DHT22;7075;53.574;10.054;2022-10-04T00:06:03;13.00;99.90
14000;DHT22;7075;53.574;10.054;2022-10-04T00:08:47;13.00;99.90
14000;DHT22;7075;53.574;10.054;2022-10-04T00:13:46;13.00;99.90
14000;DHT22;7075;53.574;10.054;2022-10-04T00:16:25;13.00;99.90
14000;DHT22;7075;53.574;10.054;2022-10-04T00:19:20;12.90;99.90
14000;DHT22;7075;53.574;10.054;2022-10-04T00:24:28;12.80;99.90
14000;DHT22;7075;53.574;10.054;2022-10-04T00:40:34;12.80;99.90
14000;DHT22;7075;53.574;10.054;2022-10-04T00:46:01;12.80;99.90
14000;DHT22;7075;53.574;10.054;2022-10-04T00:49:14;12.80;99.90
14000;DHT22;7075;53.574;10.054;2022-10-04T00:51:26;12.80;99.90
14000;DHT22;7075;53.574;10.054;2022-10-04T00:54:26;12.80;99.90
14000;DHT22;7075;53.574;10.054;2022-10-04T00:56:57;12.70;99.90
14000;DHT22;7075;53.574;10.054;2022-10-04T00:59:38;12.60;99.90
14000;DHT22;7075;53.574;10.054;2022-10-04T01:05:00;12.60;99.90
14000;DHT22;7075;53.574;10.054;2022-10-04T01:07:32;12.60;99.90
14000;DHT22;7075;53.574;10.054;2022-10-04T01:10:04;12.60;99.90
14000;DHT22;7075;53.574;10.054;2022-10-04T01:15:35;12.70;99.90
14000;DHT22;7075;53.574;10.054;2022-10-04T01:18:27;12.70;99.90
14000;DHT22;7075;53.574;10.054;2022-10-04T01:25:57;12.60;99.90
14000;DHT22;7075;53.574;10.054;2022-10-04T01:28:24;12.60;99.90
14000;DHT22;7075;53.574;10.054;2022-10-04T01:30:50;12.60;99.90
14000;DHT22;7075;53.574;10.054;2022-10-04T01:33:17;12.60;99.90
14000;DHT22;7075;53.574;10.054;2022-10-04T01:35:43;12.60;99.90
14000;DHT22;7075;53.574;10.054;2022-10-04T01:38:10;12.50;99.90
14000;DHT22;7075;53.574;10.054;2022-10-04T01:40:44;12.50;99.90
14000;DHT22;7075;53.574;10.054;2022-10-04T01:43:15;12.50;99.90
14000;DHT22;7075;53.574;10.054;2022-10-04T01:45:46;12.50;99.90
14000;DHT22;7075;53.574;10.054;2022-10-04T01:48:22;12.50;99.90
14000;DHT22;7075;53.574;10.054;2022-10-04T01:51:19;12.50;99.90
14000;DHT22;7075;53.574;10.054;2022-10-04T01:53:58;12.50;99.90
14000;DHT22;7075;53.574;10.054;2022-10-04T01:56:28;12.50;99.90
14000;DHT22;7075;53.574;10.054;2022-10-04T01:59:02;12.50;99.90
14000;DHT22;7075;53.574;10.054;2022-10-04T02:01:39;12.50;99.90
14000;DHT22;7075;53.574;10.054;2022-10-04T02:04:16;12.50;99.90
14000;DHT22;7075;53.574;10.054;2022-10-04T02:06:44;12.50;99.90
14000;DHT22;7075;53.574;10.054;2022-10-04T02:09:18;12.50;99.90
14000;DHT22;7075;53.574;10.054;2022-10-04T02:11:48;12.50;99.90
14000;DHT22;7075;53.574;10.054;2022-10-04T02:14:22;12.50;99.90
14000;DHT22;7075;53.574;10.054;2022-10-04T02:16:51;12.40;99.90
14000;DHT22;7075;53.574;10.054;2022-10-04T02:19:25;12.40;99.90
14000;DHT22;7075;53.574;10.054;2022-10-04T02:21:57;12.40;99.90
14000;DHT22;7075;53.574;10.054;2022-10-04T02:24:23;12.40;99.90
14000;DHT22;7075;53.574;10.054;2022-10-04T02:26:52;12.40;99.90
14000;DHT22;7075;53.574;10.054;2022-10-04T02:29:19;12.40;99.90
14000;DHT22;7075;53.574;10.054;2022-10-04T02:31:46;12.40;99.90
14000;DHT22;7075;53.574;10.054;2022-10-04T02:34:31;12.40;99.90
14000;DHT22;7075;53.574;10.054;2022-10-04T02:37:01;12.40;99.90
14000;DHT22;7075;53.574;10.054;2022-10-04T02:39:36;12.40;99.90
14000;DHT22;7075;53.574;10.054;2022-10-04T02:42:11;12.30;99.90
14000;DHT22;7075;53.574;10.054;2022-10-04T02:47:13;12.30;99.90
14000;DHT22;7075;53.574;10.054;2022-10-04T02:49:53;12.20;99.90
14000;DHT22;7075;53.574;10.054;2022-10-04T02:52:26;12.20;99.90
14000;DHT22;7075;53.574;10.054;2022-10-04T02:57:32;12.20;99.90
14000;DHT22;7075;53.574;10.054;2022-10-04T03:02:40;12.40;99.90
14000;DHT22;7075;53.574;10.054;2022-10-04T03:05:11;12.40;99.90
14000;DHT22;7075;53.574;10.054;2022-10-04T03:07:39;12.40;99.90
14000;DHT22;7075;53.574;10.054;2022-10-04T03:10:09;12.40;99.90
14000;DHT22;7075;53.574;10.054;2022-10-04T03:12:37;12.40;99.90
14000;DHT22;7075;53.574;10.054;2022-10-04T03:15:08;12.30;99.90
14000;DHT22;7075;53.574;10.054;2022-10-04T03:17:35;12.30;99.90
14000;DHT22;7075;53.574;10.054;2022-10-04T03:20:03;12.30;99.90
14000;DHT22;7075;53.574;10.054;2022-10-04T03:22:29;12.30;99.90
14000;DHT22;7075;53.574;10.054;2022-10-04T03:24:56;12.30;99.90
14000;DHT22;7075;53.574;10.054;2022-10-04T03:27:28;12.30;99.90
14000;DHT22;7075;53.574;10.054;2022-10-04T03:29:55;12.40;99.90
14000;DHT22;7075;53.574;10.054;2022-10-04T03:32:24;12.40;99.90
14000;DHT22;7075;53.574;10.054;2022-10-04T03:35:02;12.40;99.90
14000;DHT22;7075;53.574;10.054;2022-10-04T03:37:30;12.50;99.90
14000;DHT22;7075;53.574;10.054;2022-10-04T03:40:00;12.50;99.90
14000;DHT22;7075;53.574;10.054;2022-10-04T03:42:31;12.50;99.90
14000;DHT22;7075;53.574;10.054;2022-10-04T03:45:00;12.40;99.90
14000;DHT22;7075;53.574;10.054;2022-10-04T03:47:32;12.40;99.90
14000;DHT22;7075;53.574;10.054;2022-10-04T03:50:15;12.40;99.90
14000;DHT22;7075;53.574;10.054;2022-10-04T03:52:47;12.40;99.90
14000;DHT22;7075;53.574;10.054;2022-10-04T03:55:16;12.40;99.90
14000;DHT22;7075;53.574;10.054;2022-10-04T03:57:43;12.40;99.90
14000;DHT22;7075;53.574;10.054;2022-10-04T04:00:13;12.40;99.90
14000;DHT22;7075;53.574;10.054;2022-10-04T04:02:49;12.40;99.90
14000;DHT22;7075;53.574;10.054;2022-10-04T04:05:34;12.40;99.90
14000;DHT22;7075;53.574;10.054;2022-10-04T04:08:18;12.40;99.90
14000;DHT22;7075;53.574;10.054;2022-10-04T04:10:51;12.40;99.90
14000;DHT22;7075;53.574;10.054;2022-10-04T04:16:19;12.50;99.90
14000;DHT22;7075;53.574;10.054;2022-10-04T04:18:47;12.40;99.90
14000;DHT22;7075;53.574;10.054;2022-10-04T04:21:18;12.40;99.90
14000;DHT22;7075;53.574;10.054;2022-10-04T04:23:52;12.40;99.90
14000;DHT22;7075;53.574;10.054;2022-10-04T04:26:28;12.30;99.90
14000;DHT22;7075;53.574;10.054;2022-10-04T04:29:10;12.30;99.90
14000;DHT22;7075;53.574;10.054;2022-10-04T04:31:51;12.30;99.90
14000;DHT22;7075;53.574;10.054;2022-10-04T04:34:24;12.30;99.90
14000;DHT22;7075;53.574;10.054;2022-10-04T04:36:50;12.40;99.90
14000;DHT22;7075;53.574;10.054;2022-10-04T04:39:22;12.20;99.90
14000;DHT22;7075;53.574;10.054;2022-10-04T04:42:29;12.20;99.90
14000;DHT22;7075;53.574;10.054;2022-10-04T04:44:58;12.30;99.90
14000;DHT22;7075;53.574;10.054;2022-10-04T04:50:13;12.40;99.90
14000;DHT22;7075;53.574;10.054;2022-10-04T04:52:48;12.40;99.90
14000;DHT22;7075;53.574;10.054;2022-10-04T04:55:22;12.40;99.90
14000;DHT22;7075;53.574;10.054;2022-10-04T04:57:50;12.40;99.90
14000;DHT22;7075;53.574;10.054;2022-10-04T05:00:19;12.40;99.90
14000;DHT22;7075;53.574;10.054;2022-10-04T05:02:55;12.40;99.90
14000;DHT22;7075;53.574;10.054;2022-10-04T05:05:23;12.40;99.90
14000;DHT22;7075;53.574;10.054;2022-10-04T05:08:17;12.40;99.90
14000;DHT22;7075;53.574;10.054;2022-10-04T05:11:03;12.40;99.90
14000;DHT22;7075;53.574;10.054;2022-10-04T05:14:00;12.30;99.90
14000;DHT22;7075;53.574;10.054;2022-10-04T05:16:37;12.30;99.90
14000;DHT22;7075;53.574;10.054;2022-10-04T05:19:08;12.20;99.90
14000;DHT22;7075;53.574;10.054;2022-10-04T05:21:37;12.20;99.90
14000;DHT22;7075;53.574;10.054;2022-10-04T11:15:37;17.20;99.90
14000;DHT22;7075;53.574;10.054;2022-10-04T11:18:12;17.10;99.90
14000;DHT22;7075;53.574;10.054;2022-10-04T11:21:10;17.10;99.90
14000;DHT22;7075;53.574;10.054;2022-10-04T11:24:10;17.30;99.90
14000;DHT22;7075;53.574;10.054;2022-10-04T11:39:00;16.80;99.90
14000;DHT22;7075;53.574;10.054;2022-10-04T11:47:04;16.80;99.90
14000;DHT22;7075;53.574;10.054;2022-10-04T11:57:58;17.00;99.90
14000;DHT22;7075;53.574;10.054;2022-10-04T12:03:50;17.70;99.90
14000;DHT22;7075;53.574;10.054;2022-10-04T12:12:20;17.40;99.90
14000;DHT22;7075;53.574;10.054;2022-10-04T12:15:31;17.50;99.90
14000;DHT22;7075;53.574;10.054;2022-10-04T12:24:47;17.80;99.90
14000;DHT22;7075;53.574;10.054;2022-10-04T12:52:42;18.40;99.90
14000;DHT22;7075;53.574;10.054;2022-10-04T13:00:46;19.40;99.90
14000;DHT22;7075;53.574;10.054;2022-10-04T13:03:22;19.50;99.90
14000;DHT22;7075;53.574;10.054;2022-10-04T13:19:33;19.40;99.90
14000;DHT22;7075;53.574;10.054;2022-10-04T13:25:37;19.40;99.90
14000;DHT22;7075;53.574;10.054;2022-10-04T13:36:44;19.90;99.90
14000;DHT22;7075;53.574;10.054;2022-10-04T13:39:23;20.00;99.90
14000;DHT22;7075;53.574;10.054;2022-10-04T13:44:52;19.90;99.90
14000;DHT22;7075;53.574;10.054;2022-10-04T13:53:03;20.30;99.90
14000;DHT22;7075;53.574;10.054;2022-10-04T14:01:56;20.50;99.90
14000;DHT22;7075;53.574;10.054;2022-10-04T14:13:04;20.60;99.90
14000;DHT22;7075;53.574;10.054;2022-10-04T14:18:56;20.30;99.90
14000;DHT22;7075;53.574;10.054;2022-10-04T14:21:56;20.40;99.90
14000;DHT22;7075;53.574;10.054;2022-10-04T14:27:30;20.20;99.90
14000;DHT22;7075;53.574;10.054;2022-10-04T14:30:22;20.40;99.90
14000;DHT22;7075;53.574;10.054;2022-10-04T14:38:42;20.70;99.90
14000;DHT22;7075;53.574;10.054;2022-10-04T14:54:57;20.30;99.90
14000;DHT22;7075;53.574;10.054;2022-10-04T14:58:10;20.40;99.90
14000;DHT22;7075;53.574;10.054;2022-10-04T15:06:48;19.80;99.90
14000;DHT22;7075;53.574;10.054;2022-10-04T15:12:59;19.60;99.90
14000;DHT22;7075;53.574;10.054;2022-10-04T15:18:23;19.40;99.90
14000;DHT22;7075;53.574;10.054;2022-10-04T15:21:08;19.40;99.90
14000;DHT22;7075;53.574;10.054;2022-10-04T15:23:42;19.50;99.90
14000;DHT22;7075;53.574;10.054;2022-10-04T15:36:42;19.20;99.90
14000;DHT22;7075;53.574;10.054;2022-10-04T15:39:28;19.10;99.90
14000;DHT22;7075;53.574;10.054;2022-10-04T15:42:13;19.00;99.90
14000;DHT22;7075;53.574;10.054;2022-10-04T15:50:30;18.90;99.90
14000;DHT22;7075;53.574;10.054;2022-10-04T15:56:08;18.90;99.90
14000;DHT22;7075;53.574;10.054;2022-10-04T15:58:49;18.90;99.90
14000;DHT22;7075;53.574;10.054;2022-10-04T16:04:47;18.80;99.90
14000;DHT22;7075;53.574;10.054;2022-10-04T16:07:31;18.80;99.90
14000;DHT22;7075;53.574;10.054;2022-10-04T16:13:11;18.80;99.90
14000;DHT22;7075;53.574;10.054;2022-10-04T16:15:44;18.80;99.90
14000;DHT22;7075;53.574;10.054;2022-10-04T16:23:33;18.50;99.90
14000;DHT22;7075;53.574;10.054;2022-10-04T16:34:33;18.40;99.90
14000;DHT22;7075;53.574;10.054;2022-10-04T16:57:14;17.90;99.90
14000;DHT22;7075;53.574;10.054;2022-10-04T17:08:22;17.70;99.90
14000;DHT22;7075;53.574;10.054;2022-10-04T17:14:19;17.60;99.90
14000;DHT22;7075;53.574;10.054;2022-10-04T17:16:33;17.60;99.90
14000;DHT22;7075;53.574;10.054;2022-10-04T17:21:47;17.70;99.90
14000;DHT22;7075;53.574;10.054;2022-10-04T17:27:42;17.70;99.90
14000;DHT22;7075;53.574;10.054;2022-10-04T17:33:15;17.50;99.90
14000;DHT22;7075;53.574;10.054;2022-10-04T17:35:57;17.40;99.90
14000;DHT22;7075;53.574;10.054;2022-10-04T17:41:19;17.40;99.90
14000;DHT22;7075;53.574;10.054;2022-10-04T17:46:30;17.50;99.90
14000;DHT22;7075;53.574;10.054;2022-10-04T17:49:03;17.60;99.90
14000;DHT22;7075;53.574;10.054;2022-10-04T17:51:54;17.60;99.90
14000;DHT22;7075;53.574;10.054;2022-10-04T17:54:49;17.50;99.90
14000;DHT22;7075;53.574;10.054;2022-10-04T18:00:14;17.50;99.90
14000;DHT22;7075;53.574;10.054;2022-10-04T18:11:03;17.10;99.90
14000;DHT22;7075;53.574;10.054;2022-10-04T18:13:31;17.10;99.90
14000;DHT22;7075;53.574;10.054;2022-10-04T18:16:28;16.90;99.90
14000;DHT22;7075;53.574;10.054;2022-10-04T18:18:54;16.90;99.90
14000;DHT22;7075;53.574;10.054;2022-10-04T18:21:25;16.80;99.90
14000;DHT22;7075;53.574;10.054;2022-10-04T18:24:19;16.70;99.90
14000;DHT22;7075;53.574;10.054;2022-10-04T18:27:12;16.70;99.90
14000;DHT22;7075;53.574;10.054;2022-10-04T18:29:54;16.60;99.90
14000;DHT22;7075;53.574;10.054;2022-10-04T18:34:55;16.50;99.90
14000;DHT22;7075;53.574;10.054;2022-10-04T18:37:35;16.50;99.90
14000;DHT22;7075;53.574;10.054;2022-10-04T18:42:53;16.70;99.90
14000;DHT22;7075;53.574;10.054;2022-10-04T18:45:25;16.70;99.90
14000;DHT22;7075;53.574;10.054;2022-10-04T18:47:52;16.80;99.90
14000;DHT22;7075;53.574;10.054;2022-10-04T18:50:39;16.70;99.90
14000;DHT22;7075;53.574;10.054;2022-10-04T18:53:19;16.60;99.90
14000;DHT22;7075;53.574;10.054;2022-10-04T18:55:59;16.60;99.90
14000;DHT22;7075;53.574;10.054;2022-10-04T19:05:03;16.60;99.90
14000;DHT22;7075;53.574;10.054;2022-10-04T19:10:24;16.50;99.90
14000;DHT22;7075;53.574;10.054;2022-10-04T19:13:11;16.40;99.90
14000;DHT22;7075;53.574;10.054;2022-10-04T19:26:36;16.30;99.90
14000;DHT22;7075;53.574;10.054;2022-10-04T19:31:48;16.10;99.90
14000;DHT22;7075;53.574;10.054;2022-10-04T19:37:00;15.90;99.90
14000;DHT22;7075;53.574;10.054;2022-10-04T19:39:40;15.90;99.90
14000;DHT22;7075;53.574;10.054;2022-10-04T19:43:02;15.80;99.90
14000;DHT22;7075;53.574;10.054;2022-10-04T19:48:17;15.70;99.90
14000;DHT22;7075;53.574;10.054;2022-10-04T19:50:50;15.70;99.90
14000;DHT22;7075;53.574;10.054;2022-10-04T19:53:35;15.60;99.90
14000;DHT22;7075;53.574;10.054;2022-10-04T19:56:08;15.70;99.90
14000;DHT22;7075;53.574;10.054;2022-10-04T19:58:42;15.60;99.90
14000;DHT22;7075;53.574;10.054;2022-10-04T20:01:11;15.60;99.90
14000;DHT22;7075;53.574;10.054;2022-10-04T20:03:38;15.70;99.90
14000;DHT22;7075;53.574;10.054;2022-10-04T20:06:04;15.70;99.90
14000;DHT22;7075;53.574;10.054;2022-10-04T20:08:51;15.80;99.90
14000;DHT22;7075;53.574;10.054;2022-10-04T20:11:20;15.70;99.90
14000;DHT22;7075;53.574;10.054;2022-10-04T20:19:38;15.60;99.90
14000;DHT22;7075;53.574;10.054;2022-10-04T20:34:55;15.40;99.90
14000;DHT22;7075;53.574;10.054;2022-10-04T20:45:46;15.30;99.90
14000;DHT22;7075;53.574;10.054;2022-10-04T20:48:16;15.30;99.90
14000;DHT22;7075;53.574;10.054;2022-10-04T20:50:42;15.30;99.90
14000;DHT22;7075;53.574;10.054;2022-10-04T20:53:25;15.30;99.90
14000;DHT22;7075;53.574;10.054;2022-10-04T20:56:08;15.20;99.90
14000;DHT22;7075;53.574;10.054;2022-10-04T20:58:35;15.10;99.90
14000;DHT22;7075;53.574;10.054;2022-10-04T21:03:41;15.10;99.90
14000;DHT22;7075;53.574;10.054;2022-10-04T21:06:08;15.10;99.90
14000;DHT22;7075;53.574;10.054;2022-10-04T21:08:35;15.10;99.90
14000;DHT22;7075;53.574;10.054;2022-10-04T21:16:08;15.20;99.90
14000;DHT22;7075;53.574;10.054;2022-10-04T21:18:33;15.20;99.90
14000;DHT22;7075;53.574;10.054;2022-10-04T21:20:59;15.20;99.90
14000;DHT22;7075;53.574;10.054;2022-10-04T21:23:31;15.20;99.90
14000;DHT22;7075;53.574;10.054;2022-10-04T21:26:23;15.10;99.90
14000;DHT22;7075;53.574;10.054;2022-10-04T21:28:53;15.00;99.90
14000;DHT22;7075;53.574;10.054;2022-10-04T21:31:21;15.00;99.90
14000;DHT22;7075;53.574;10.054;2022-10-04T21:33:47;14.90;99.90
14000;DHT22;7075;53.574;10.054;2022-10-04T21:36:13;15.00;99.90
14000;DHT22;7075;53.574;10.054;2022-10-04T21:38:38;15.10;99.90
14000;DHT22;7075;53.574;10.054;2022-10-04T21:41:04;15.10;99.90
14000;DHT22;7075;53.574;10.054;2022-10-04T21:43:30;15.20;99.90
14000;DHT22;7075;53.574;10.054;2022-10-04T21:45:56;15.00;99.90
14000;DHT22;7075;53.574;10.054;2022-10-04T21:48:22;15.00;99.90
14000;DHT22;7075;53.574;10.054;2022-10-04T21:50:49;14.90;99.90
14000;DHT22;7075;53.574;10.054;2022-10-04T21:53:15;14.90;99.90
14000;DHT22;7075;53.574;10.054;2022-10-04T21:55:41;14.80;99.90
14000;DHT22;7075;53.574;10.054;2022-10-04T21:58:06;14.80;99.90
14000;DHT22;7075;53.574;10.054;2022-10-04T22:00:32;14.90;99.90
14000;DHT22;7075;53.574;10.054;2022-10-04T22:02:58;14.90;99.90
14000;DHT22;7075;53.574;10.054;2022-10-04T22:05:24;14.90;99.90
14000;DHT22;7075;53.574;10.054;2022-10-04T22:07:50;14.90;99.90
14000;DHT22;7075;53.574;10.054;2022-10-04T22:10:16;14.90;99.90
14000;DHT22;7075;53.574;10.054;2022-10-04T22:12:41;14.80;99.90
14000;DHT22;7075;53.574;10.054;2022-10-04T22:15:07;14.90;99.90
14000;DHT22;7075;53.574;10.054;2022-10-04T22:17:33;14.90;99.90
14000;DHT22;7075;53.574;10.054;2022-10-04T22:19:58;14.80;99.90
14000;DHT22;7075;53.574;10.054;2022-10-04T22:22:24;14.80;99.90
14000;DHT22;7075;53.574;10.054;2022-10-04T22:24:50;14.80;99.90
14000;DHT22;7075;53.574;10.054;2022-10-04T22:27:17;14.80;99.90
14000;DHT22;7075;53.574;10.054;2022-10-04T22:29:43;14.80;99.90
14000;DHT22;7075;53.574;10.054;2022-10-04T22:34:48;14.90;99.90
14000;DHT22;7075;53.574;10.054;2022-10-04T22:37:13;14.90;99.90
14000;DHT22;7075;53.574;10.054;2022-10-04T22:39:39;14.90;99.90
14000;DHT22;7075;53.574;10.054;2022-10-04T22:42:05;14.90;99.90
14000;DHT22;7075;53.574;10.054;2022-10-04T22:44:36;14.90;99.90
14000;DHT22;7075;53.574;10.054;2022-10-04T22:47:04;14.90;99.90
14000;DHT22;7075;53.574;10.054;2022-10-04T22:49:33;14.90;99.90
14000;DHT22;7075;53.574;10.054;2022-10-04T22:52:02;14.90;99.90
14000;DHT22;7075;53.574;10.054;2022-10-04T22:54:33;14.90;99.90
14000;DHT22;7075;53.574;10.054;2022-10-04T22:56:58;14.90;99.90
14000;DHT22;7075;53.574;10.054;2022-10-04T22:59:37;14.90;99.90
14000;DHT22;7075;53.574;10.054;2022-10-04T23:02:21;14.90;99.90
14000;DHT22;7075;53.574;10.054;2022-10-04T23:04:55;14.90;99.90
14000;DHT22;7075;53.574;10.054;2022-10-04T23:07:22;14.90;99.90
14000;DHT22;7075;53.574;10.054;2022-10-04T23:09:48;14.90;99.90
14000;DHT22;7075;53.574;10.054;2022-10-04T23:12:14;14.90;99.90
14000;DHT22;7075;53.574;10.054;2022-10-04T23:14:40;14.90;99.90
14000;DHT22;7075;53.574;10.054;2022-10-04T23:17:28;14.90;99.90
14000;DHT22;7075;53.574;10.054;2022-10-04T23:20:00;14.80;99.90
14000;DHT22;7075;53.574;10.054;2022-10-04T23:22:28;14.80;99.90
14000;DHT22;7075;53.574;10.054;2022-10-04T23:24:55;14.80;99.90
14000;DHT22;7075;53.574;10.054;2022-10-04T23:27:21;14.80;99.90
14000;DHT22;7075;53.574;10.054;2022-10-04T23:29:47;14.80;99.90
14000;DHT22;7075;53.574;10.054;2022-10-04T23:32:15;14.80;99.90
14000;DHT22;7075;53.574;10.054;2022-10-04T23:34:43;14.80;99.90
14000;DHT22;7075;53.574;10.054;2022-10-04T23:37:19;14.80;99.90
14000;DHT22;7075;53.574;10.054;2022-10-04T23:39:45;14.80;99.90
14000;DHT22;7075;53.574;10.054;2022-10-04T23:42:23;14.80;99.90
14000;DHT22;7075;53.574;10.054;2022-10-04T23:44:53;14.80;99.90
14000;DHT22;7075;53.574;10.054;2022-10-04T23:47:20;14.80;99.90
14000;DHT22;7075;53.574;10.054;2022-10-04T23:49:51;14.80;99.90
14000;DHT22;7075;53.574;10.054;2022-10-04T23:52:31;14.80;99.90
14000;DHT22;7075;53.574;10.054;2022-10-04T23:54:59;14.80;99.90
14000;DHT22;7075;53.574;10.054;2022-10-04T23:57:26;14.80;99.90
14000;DHT22;7075;53.574;10.054;2022-10-04T23:59:52;14.80;99.90
